sensor_id;sensor_type;location;lat;lon;timestamp;P1;durP1;ratioP1;P2;durP2;ratioP2
40248;SDS011;25969;49.970;11.062;2022-12-04T05:07:05;11.37;;;6.27;;
40248;SDS011;25969;49.970;11.062;2022-12-04T05:17:05;11.63;;;6.10;;
40248;SDS011;25969;49.970;11.062;2022-12-04T05:27:06;10.67;;;6.33;;
40248;SDS011;25969;49.970;11.062;2022-12-04T05:37:07;11.33;;;6.10;;
40248;SDS011;25969;49.970;11.062;2022-12-04T05:47:08;12.10;;;6.27;;
40248;SDS011;25969;49.970;11.062;2022-12-04T05:57:09;10.07;;;5.87;;
40248;SDS011;25969;49.970;11.062;2022-12-04T06:07:09;11.80;;;6.20;;
40248;SDS011;25969;49.970;11.062;2022-12-04T06:17:10;10.77;;;6.47;;
40248;SDS011;25969;49.970;11.062;2022-12-04T06:27:11;10.77;;;5.60;;
40248;SDS011;25969;49.970;11.062;2022-12-04T06:37:11;12.43;;;6.20;;
40248;SDS011;25969;49.970;11.062;2022-12-04T06:47:12;12.97;;;6.50;;
40248;SDS011;25969;49.970;11.062;2022-12-04T06:57:13;11.90;;;6.07;;
40248;SDS011;25969;49.970;11.062;2022-12-04T07:07:13;10.63;;;6.13;;
40248;SDS011;25969;49.970;11.062;2022-12-04T07:17:14;12.53;;;5.60;;
40248;SDS011;25969;49.970;11.062;2022-12-04T07:27:15;11.03;;;6.47;;
40248;SDS011;25969;49.970;11.062;2022-12-04T07:37:15;11.10;;;6.00;;
40248;SDS011;25969;49.970;11.062;2022-12-04T07:47:16;8.67;;;5.03;;
40248;SDS011;25969;49.970;11.062;2022-12-04T07:57:17;8.90;;;5.37;;
40248;SDS011;25969;49.970;11.062;2022-12-04T08:07:17;12.00;;;6.23;;
40248;SDS011;25969;49.970;11.062;2022-12-04T08:17:18;8.10;;;5.10;;
40248;SDS011;25969;49.970;11.062;2022-12-04T08:27:19;7.68;;;5.35;;
40248;SDS011;25969;49.970;11.062;2022-12-04T08:37:19;10.33;;;5.37;;
40248;SDS011;25969;49.970;11.062;2022-12-04T08:47:20;8.43;;;4.60;;
40248;SDS011;25969;49.970;11.062;2022-12-04T08:57:21;7.07;;;4.50;;
40248;SDS011;25969;49.970;11.062;2022-12-04T09:07:22;7.83;;;4.37;;
40248;SDS011;25969;49.970;11.062;2022-12-04T09:17:22;9.03;;;3.87;;
40248;SDS011;25969;49.970;11.062;2022-12-04T09:27:23;6.43;;;4.37;;
40248;SDS011;25969;49.970;11.062;2022-12-04T09:37:24;6.30;;;3.90;;
40248;SDS011;25969;49.970;11.062;2022-12-04T09:47:31;5.97;;;3.30;;
40248;SDS011;25969;49.970;11.062;2022-12-04T09:57:43;6.53;;;3.92;;
40248;SDS011;25969;49.970;11.062;2022-12-04T10:08:00;7.47;;;3.40;;
40248;SDS011;25969;49.970;11.062;2022-12-04T10:28:42;8.07;;;4.07;;
40248;SDS011;25969;49.970;11.062;2022-12-04T10:48:58;6.82;;;4.45;;
40248;SDS011;25969;49.970;11.062;2022-12-04T10:59:13;10.57;;;4.70;;
40248;SDS011;25969;49.970;11.062;2022-12-04T11:09:19;6.18;;;3.75;;
40248;SDS011;25969;49.970;11.062;2022-12-04T11:19:26;6.63;;;4.45;;
40248;SDS011;25969;49.970;11.062;2022-12-04T11:29:35;6.87;;;4.00;;
40248;SDS011;25969;49.970;11.062;2022-12-04T11:39:44;6.65;;;3.83;;
40248;SDS011;25969;49.970;11.062;2022-12-04T11:49:56;5.90;;;4.17;;
40248;SDS011;25969;49.970;11.062;2022-12-04T12:10:24;10.15;;;5.57;;
40248;SDS011;25969;49.970;11.062;2022-12-04T12:20:37;6.75;;;4.55;;
40248;SDS011;25969;49.970;11.062;2022-12-04T12:41:11;6.40;;;4.50;;
40248;SDS011;25969;49.970;11.062;2022-12-04T13:01:38;10.33;;;5.60;;
40248;SDS011;25969;49.970;11.062;2022-12-04T13:11:39;10.83;;;5.90;;
40248;SDS011;25969;49.970;11.062;2022-12-04T13:21:55;9.63;;;5.90;;
40248;SDS011;25969;49.970;11.062;2022-12-04T13:32:33;10.97;;;5.90;;
40248;SDS011;25969;49.970;11.062;2022-12-04T13:42:50;9.63;;;6.13;;
40248;SDS011;25969;49.970;11.062;2022-12-04T13:52:51;10.17;;;5.83;;
40248;SDS011;25969;49.970;11.062;2022-12-04T14:02:54;10.57;;;6.27;;
40248;SDS011;25969;49.970;11.062;2022-12-04T14:13:16;13.03;;;7.00;;
40248;SDS011;25969;49.970;11.062;2022-12-04T14:23:26;11.33;;;6.33;;
40248;SDS011;25969;49.970;11.062;2022-12-04T14:33:58;11.70;;;6.83;;
40248;SDS011;25969;49.970;11.062;2022-12-04T14:44:02;12.67;;;7.77;;
40248;SDS011;25969;49.970;11.062;2022-12-04T15:04:22;13.83;;;8.20;;
40248;SDS011;25969;49.970;11.062;2022-12-04T15:14:23;15.13;;;9.10;;
40248;SDS011;25969;49.970;11.062;2022-12-04T15:24:24;12.97;;;8.27;;
40248;SDS011;25969;49.970;11.062;2022-12-04T15:34:36;15.33;;;8.97;;
40248;SDS011;25969;49.970;11.062;2022-12-04T15:44:57;15.10;;;8.47;;
40248;SDS011;25969;49.970;11.062;2022-12-04T15:55:05;16.20;;;8.80;;
40248;SDS011;25969;49.970;11.062;2022-12-04T16:05:11;14.40;;;8.37;;
40248;SDS011;25969;49.970;11.062;2022-12-04T16:15:12;17.10;;;9.40;;
40248;SDS011;25969;49.970;11.062;2022-12-04T16:25:13;19.00;;;9.87;;
40248;SDS011;25969;49.970;11.062;2022-12-04T16:35:15;17.27;;;9.30;;
40248;SDS011;25969;49.970;11.062;2022-12-04T16:55:37;21.40;;;10.37;;
40248;SDS011;25969;49.970;11.062;2022-12-04T17:05:39;16.80;;;10.33;;
40248;SDS011;25969;49.970;11.062;2022-12-04T17:15:39;21.83;;;11.63;;
40248;SDS011;25969;49.970;11.062;2022-12-04T17:25:40;19.43;;;10.10;;
40248;SDS011;25969;49.970;11.062;2022-12-04T17:35:41;17.57;;;10.57;;
40248;SDS011;25969;49.970;11.062;2022-12-04T17:45:43;17.73;;;9.93;;
40248;SDS011;25969;49.970;11.062;2022-12-04T17:55:43;23.40;;;12.63;;
40248;SDS011;25969;49.970;11.062;2022-12-04T18:05:44;36.97;;;20.93;;
40248;SDS011;25969;49.970;11.062;2022-12-04T18:15:45;206.70;;;82.13;;
40248;SDS011;25969;49.970;11.062;2022-12-04T18:25:53;313.03;;;105.67;;
40248;SDS011;25969;49.970;11.062;2022-12-04T18:35:57;30.27;;;15.60;;
40248;SDS011;25969;49.970;11.062;2022-12-04T18:45:59;35.97;;;17.15;;
40248;SDS011;25969;49.970;11.062;2022-12-04T18:56:02;29.67;;;16.00;;
40248;SDS011;25969;49.970;11.062;2022-12-04T19:06:03;31.17;;;15.63;;
40248;SDS011;25969;49.970;11.062;2022-12-04T19:16:08;33.63;;;16.57;;
40248;SDS011;25969;49.970;11.062;2022-12-04T19:26:14;32.77;;;15.50;;
40248;SDS011;25969;49.970;11.062;2022-12-04T19:36:14;32.73;;;15.13;;
40248;SDS011;25969;49.970;11.062;2022-12-04T19:46:17;29.13;;;14.63;;
40248;SDS011;25969;49.970;11.062;2022-12-04T19:56:22;30.60;;;14.93;;
40248;SDS011;25969;49.970;11.062;2022-12-04T20:06:25;31.07;;;15.63;;
40248;SDS011;25969;49.970;11.062;2022-12-04T20:16:28;35.07;;;16.93;;
40248;SDS011;25969;49.970;11.062;2022-12-04T20:26:31;34.27;;;16.27;;
40248;SDS011;25969;49.970;11.062;2022-12-04T20:36:34;34.63;;;16.57;;
40248;SDS011;25969;49.970;11.062;2022-12-04T20:46:37;36.67;;;18.83;;
40248;SDS011;25969;49.970;11.062;2022-12-04T20:56:39;37.75;;;17.63;;
40248;SDS011;25969;49.970;11.062;2022-12-04T21:06:40;40.70;;;18.77;;
40248;SDS011;25969;49.970;11.062;2022-12-04T21:16:41;38.80;;;19.30;;
40248;SDS011;25969;49.970;11.062;2022-12-04T21:26:42;57.90;;;21.67;;
40248;SDS011;25969;49.970;11.062;2022-12-04T21:36:43;42.27;;;18.20;;
40248;SDS011;25969;49.970;11.062;2022-12-04T21:56:46;35.70;;;17.80;;
40248;SDS011;25969;49.970;11.062;2022-12-04T22:06:47;36.90;;;16.83;;
40248;SDS011;25969;49.970;11.062;2022-12-04T22:16:51;41.37;;;18.87;;
40248;SDS011;25969;49.970;11.062;2022-12-04T22:26:52;38.23;;;18.40;;
40248;SDS011;25969;49.970;11.062;2022-12-04T22:36:52;37.60;;;18.43;;
40248;SDS011;25969;49.970;11.062;2022-12-04T22:46:53;36.10;;;17.83;;
40248;SDS011;25969;49.970;11.062;2022-12-04T22:56:54;39.45;;;19.30;;
